Terminal Aerodrome Forecast
Issued by NWS Sterling, VA

Current Version | Previous Version | Text Only | Print | Product List | Glossary On
Versions: 1 2 3 4 5 6 7 8 9 10 11 12 13 14 15 16 17 18 19 20 21 22 23 24 25 26 27 28 29 30 31 32 33 34 35 36 37 38 39 40 41 42 43 44 45 46 47 48 49 50
000
FTUS41 KLWX 210912 AAE
TAFDCA
TAF AMD
KDCA 210912Z 2109/2212 VRB03KT 1/4SM -DZ FG OVC002
     FM211500 18006KT 3/4SM BR SCT003
     FM211600 18007KT P6SM SKC
     FM220600 VRB03KT 5SM BR SKC
     FM220800 00000KT 3SM BR BKN008=

USA.gov is the U.S. government's official web portal to all federal, state and local government web resources and services.